createdAt,value
2022-08-28T00:02:25.223Z,23.14
2022-08-28T00:04:51.854Z,23.15
2022-08-28T00:07:19.336Z,23.32
2022-08-28T00:09:45.906Z,23.01
2022-08-28T00:12:12.520Z,23.16
2022-08-28T00:14:39.455Z,23.24
2022-08-28T00:17:06.230Z,23.24
2022-08-28T00:19:38.505Z,23.08
2022-08-28T00:22:06.225Z,22.81
2022-08-28T00:24:33.140Z,22.88
2022-08-28T00:27:28.910Z,22.36
2022-08-28T00:29:55.505Z,22.91
2022-08-28T00:32:25.255Z,22.73
2022-08-28T00:34:52.092Z,22.93
2022-08-28T00:37:18.712Z,22.78
2022-08-28T00:39:45.244Z,22.90
2022-08-28T00:42:11.947Z,23.05
2022-08-28T00:44:38.434Z,23.07
2022-08-28T00:47:05.071Z,22.87
2022-08-28T00:49:36.090Z,23.05
2022-08-28T00:52:11.806Z,22.90
2022-08-28T00:54:44.179Z,22.20
2022-08-28T00:57:32.006Z,22.76
2022-08-28T00:59:58.830Z,21.89
2022-08-28T01:02:26.594Z,22.59
2022-08-28T01:04:53.805Z,22.39
2022-08-28T01:07:23.235Z,21.74
2022-08-28T01:09:54.058Z,21.77
2022-08-28T01:12:28.902Z,22.54
2022-08-28T01:15:00.023Z,22.73
2022-08-28T01:17:31.284Z,22.71
2022-08-28T01:20:03.770Z,22.82
2022-08-28T01:22:43.179Z,22.86
2022-08-28T01:25:13.963Z,22.83
2022-08-28T01:27:44.387Z,22.65
2022-08-28T01:30:14.055Z,22.58
2022-08-28T01:32:47.440Z,22.29
2022-08-28T01:35:21.182Z,22.31
2022-08-28T01:37:48.238Z,22.40
2022-08-28T01:40:23.764Z,22.49
2022-08-28T01:42:50.302Z,22.28
2022-08-28T01:45:20.446Z,22.48
2022-08-28T01:47:47.561Z,22.54
2022-08-28T01:50:20.383Z,22.40
2022-08-28T01:52:47.102Z,22.20
2022-08-28T01:55:14.072Z,22.42
2022-08-28T01:57:45.948Z,22.07
2022-08-28T02:00:14.375Z,22.16
2022-08-28T02:02:40.897Z,22.11
2022-08-28T02:05:08.701Z,22.09
2022-08-28T02:07:35.424Z,22.27
2022-08-28T02:10:02.784Z,22.36
2022-08-28T02:12:29.983Z,22.08
2022-08-28T02:14:56.432Z,21.50
2022-08-28T02:17:22.840Z,21.33
2022-08-28T02:19:49.302Z,21.77
2022-08-28T02:22:15.743Z,21.76
2022-08-28T02:24:42.278Z,21.29
2022-08-28T02:27:09.104Z,21.90
2022-08-28T02:29:35.524Z,21.52
2022-08-28T02:32:02.115Z,21.70
2022-08-28T02:34:28.567Z,22.01
2022-08-28T02:36:56.152Z,21.72
2022-08-28T02:39:22.650Z,21.75
2022-08-28T02:41:49.196Z,21.71
2022-08-28T02:44:16.725Z,21.67
2022-08-28T02:46:43.692Z,21.88
2022-08-28T02:49:10.147Z,21.41
2022-08-28T02:51:36.598Z,21.77
2022-08-28T02:54:03.421Z,21.67
2022-08-28T02:56:30.944Z,21.59
2022-08-28T02:58:58.284Z,21.71
2022-08-28T03:01:24.808Z,21.02
2022-08-28T03:03:51.368Z,21.40
2022-08-28T03:06:17.799Z,21.41
2022-08-28T03:08:45.138Z,21.48
2022-08-28T03:11:12.176Z,21.22
2022-08-28T03:13:38.873Z,21.47
2022-08-28T03:16:05.499Z,21.37
2022-08-28T03:18:33.184Z,20.62
2022-08-28T03:21:00.407Z,21.51
2022-08-28T03:23:27.215Z,21.28
2022-08-28T03:26:09.718Z,21.38
2022-08-28T03:28:43.179Z,21.14
2022-08-28T03:31:13.763Z,21.17
2022-08-28T03:33:42.547Z,21.06
2022-08-28T03:36:11.552Z,21.13
2022-08-28T03:38:38.184Z,20.93
2022-08-28T03:41:10.596Z,21.00
2022-08-28T03:43:37.095Z,20.89
2022-08-28T03:46:05.890Z,20.84
2022-08-28T03:48:36.284Z,20.84
2022-08-28T03:51:08.016Z,20.92
2022-08-28T03:53:34.496Z,20.17
2022-08-28T03:56:13.664Z,20.83
2022-08-28T03:58:41.343Z,20.78
2022-08-28T04:01:08.535Z,20.61
2022-08-28T04:03:35.455Z,20.58
2022-08-28T04:06:02.548Z,20.60
2022-08-28T04:08:29.488Z,20.57
2022-08-28T04:10:56.794Z,20.74
2022-08-28T04:13:23.285Z,20.56
2022-08-28T04:16:05.015Z,20.68
2022-08-28T04:18:33.508Z,20.61
2022-08-28T04:21:07.846Z,20.25
2022-08-28T04:23:35.072Z,20.53
2022-08-28T04:26:03.863Z,20.30
2022-08-28T04:28:32.321Z,20.32
2022-08-28T04:30:59.563Z,20.38
2022-08-28T04:33:27.300Z,20.25
2022-08-28T04:35:54.357Z,20.33
2022-08-28T04:38:21.403Z,19.84
2022-08-28T04:40:48.272Z,20.23
2022-08-28T04:43:14.777Z,19.52
2022-08-28T04:45:43.329Z,20.41
2022-08-28T04:48:13.238Z,19.88
2022-08-28T04:50:44.076Z,20.16
2022-08-28T04:53:10.919Z,19.86
2022-08-28T04:55:54.976Z,20.42
2022-08-28T04:58:23.649Z,20.16
2022-08-28T05:00:52.336Z,20.40
2022-08-28T05:03:18.829Z,19.97
2022-08-28T05:05:48.294Z,20.56
2022-08-28T05:08:16.413Z,20.42
2022-08-28T05:10:43.340Z,20.17
2022-08-28T05:13:11.335Z,20.00
2022-08-28T05:15:43.491Z,20.32
2022-08-28T05:18:13.555Z,19.44
2022-08-28T05:20:45.784Z,20.30
2022-08-28T05:23:13.310Z,20.25
2022-08-28T05:25:42.770Z,20.08
2022-08-28T05:28:12.169Z,19.64
2022-08-28T05:30:41.467Z,20.12
2022-08-28T05:33:09.881Z,20.59
2022-08-28T05:35:42.835Z,20.64
2022-08-28T05:38:11.284Z,20.60
2022-08-28T05:40:43.502Z,20.23
2022-08-28T05:43:11.447Z,20.18
2022-08-28T05:45:38.172Z,20.39
2022-08-28T05:48:05.356Z,20.28
2022-08-28T05:50:32.061Z,20.20
2022-08-28T05:52:58.506Z,20.33
2022-08-28T05:55:24.946Z,20.39
2022-08-28T05:57:51.530Z,20.30
2022-08-28T06:00:18.346Z,19.85
2022-08-28T06:02:44.888Z,20.34
2022-08-28T06:05:12.896Z,20.46
2022-08-28T06:07:40.943Z,20.34
2022-08-28T06:10:07.806Z,20.55
2022-08-28T06:12:37.531Z,20.63
2022-08-28T06:15:04.632Z,20.18
2022-08-28T06:17:31.114Z,20.71
2022-08-28T06:19:57.520Z,20.19
2022-08-28T06:22:24.073Z,20.78
2022-08-28T06:24:50.547Z,20.67
2022-08-28T06:27:17.060Z,20.37
2022-08-28T06:29:44.636Z,20.00
2022-08-28T06:32:11.151Z,20.57
2022-08-28T06:34:37.619Z,20.82
2022-08-28T06:37:04.137Z,20.59
2022-08-28T06:39:30.655Z,20.81
2022-08-28T06:41:57.133Z,20.48
2022-08-28T06:44:23.897Z,20.96
2022-08-28T06:46:53.617Z,21.24
2022-08-28T06:49:20.541Z,20.90
2022-08-28T06:51:47.090Z,21.08
2022-08-28T06:54:19.671Z,20.88
2022-08-28T06:56:49.084Z,20.84
2022-08-28T06:59:15.553Z,20.64
2022-08-28T07:01:42.043Z,21.28
2022-08-28T07:04:11.125Z,21.31
2022-08-28T07:06:40.855Z,21.75
2022-08-28T07:09:11.039Z,21.71
2022-08-28T07:11:38.675Z,21.52
2022-08-28T07:14:06.317Z,21.79
2022-08-28T07:16:38.008Z,21.77
2022-08-28T07:19:10.039Z,21.75
2022-08-28T07:21:39.450Z,21.74
2022-08-28T07:24:07.341Z,21.71
2022-08-28T07:26:35.698Z,21.28
2022-08-28T07:29:10.377Z,21.56
2022-08-28T07:31:40.805Z,21.57
2022-08-28T07:34:07.845Z,21.47
2022-08-28T07:36:34.915Z,21.39
2022-08-28T07:39:01.400Z,21.23
2022-08-28T07:41:30.871Z,21.03
2022-08-28T07:44:15.785Z,21.35
2022-08-28T07:46:43.355Z,21.20
2022-08-28T07:49:11.065Z,21.60
2022-08-28T07:51:37.540Z,21.47
2022-08-28T07:54:05.091Z,21.84
2022-08-28T07:56:32.107Z,22.06
2022-08-28T07:59:00.420Z,22.09
2022-08-28T08:01:28.936Z,22.24
2022-08-28T08:04:01.304Z,22.19
2022-08-28T08:06:34.242Z,22.19
2022-08-28T08:09:04.995Z,22.42
2022-08-28T08:11:32.451Z,22.34
2022-08-28T08:14:04.698Z,22.39
2022-08-28T08:16:34.729Z,22.53
2022-08-28T08:19:02.047Z,22.55
2022-08-28T08:21:30.493Z,22.53
2022-08-28T08:23:58.008Z,22.67
2022-08-28T08:26:27.929Z,22.76
2022-08-28T08:28:54.865Z,22.87
2022-08-28T08:31:27.270Z,22.77
2022-08-28T08:33:57.917Z,22.87
2022-08-28T08:36:26.463Z,22.83
2022-08-28T08:38:59.593Z,23.16
2022-08-28T08:41:51.791Z,23.28
2022-08-28T08:44:34.045Z,23.10
2022-08-28T08:47:20.034Z,23.30
2022-08-28T08:49:52.317Z,23.16
2022-08-28T08:52:24.776Z,23.49
2022-08-28T08:55:35.417Z,23.37
2022-08-28T08:58:25.938Z,22.76
2022-08-28T09:01:00.545Z,23.30
2022-08-28T09:03:44.440Z,23.52
2022-08-28T09:06:29.669Z,23.73
2022-08-28T09:09:04.643Z,23.58
2022-08-28T09:11:45.217Z,23.78
2022-08-28T09:14:33.610Z,23.25
2022-08-28T09:17:05.030Z,23.60
2022-08-28T09:19:31.533Z,23.57
2022-08-28T09:21:58.680Z,24.26
2022-08-28T09:24:52.449Z,24.41
2022-08-28T09:27:26.459Z,24.52
2022-08-28T09:30:08.050Z,24.38
2022-08-28T09:32:44.350Z,24.77
2022-08-28T09:35:29.875Z,24.67
2022-08-28T09:38:16.435Z,24.83
2022-08-28T09:41:01.851Z,24.31
2022-08-28T09:43:31.405Z,25.11
2022-08-28T09:46:05.587Z,25.31
2022-08-28T09:48:40.722Z,25.15
2022-08-28T09:51:27.981Z,25.14
2022-08-28T09:53:57.362Z,25.08
2022-08-28T09:57:29.491Z,24.58
2022-08-28T09:59:57.113Z,24.87
2022-08-28T10:02:39.921Z,24.94
2022-08-28T10:05:16.277Z,24.92
2022-08-28T10:07:55.667Z,24.17
2022-08-28T10:10:40.000Z,24.94
2022-08-28T10:13:52.821Z,25.48
2022-08-28T10:16:26.199Z,24.95
2022-08-28T10:19:13.667Z,25.42
2022-08-28T10:21:54.849Z,25.39
2022-08-28T10:24:40.094Z,26.07
2022-08-28T10:27:23.429Z,26.08
2022-08-28T10:30:08.926Z,26.38
2022-08-28T10:32:40.775Z,26.29
2022-08-28T10:35:29.208Z,26.27
2022-08-28T10:38:23.755Z,26.37
2022-08-28T10:41:15.116Z,26.50
2022-08-28T10:47:29.437Z,26.33
2022-08-28T10:50:02.648Z,26.53
2022-08-28T10:52:57.551Z,25.86
2022-08-28T10:55:34.577Z,26.59
2022-08-28T10:58:25.144Z,25.93
2022-08-28T11:00:58.884Z,26.35
2022-08-28T11:03:35.734Z,27.06
2022-08-28T11:06:32.085Z,27.25
2022-08-28T11:09:25.531Z,27.20
2022-08-28T11:12:01.840Z,27.28
2022-08-28T11:14:35.591Z,26.87
2022-08-28T11:17:30.321Z,27.39
2022-08-28T11:20:15.275Z,27.21
2022-08-28T11:22:43.766Z,26.73
2022-08-28T11:25:26.587Z,27.20
2022-08-28T11:28:24.694Z,27.47
2022-08-28T11:31:06.402Z,27.31
2022-08-28T11:33:40.696Z,27.05
2022-08-28T11:36:19.356Z,27.26
2022-08-28T11:38:45.727Z,27.37
2022-08-28T11:41:27.353Z,27.50
2022-08-28T11:44:09.188Z,27.45
2022-08-28T11:47:00.227Z,27.84
2022-08-28T11:49:26.746Z,27.80
2022-08-28T11:52:08.101Z,27.60
2022-08-28T11:54:45.235Z,28.01
2022-08-28T11:57:19.467Z,28.08
2022-08-28T12:00:02.546Z,28.60
2022-08-28T12:02:39.738Z,28.51
2022-08-28T12:05:08.511Z,28.50
2022-08-28T12:07:38.922Z,28.20
2022-08-28T12:10:20.733Z,28.54
2022-08-28T12:12:47.245Z,28.09
2022-08-28T12:15:43.485Z,27.92
2022-08-28T12:18:12.887Z,27.93
2022-08-28T12:20:51.944Z,27.94
2022-08-28T12:23:45.118Z,28.06
2022-08-28T12:26:26.028Z,27.81
2022-08-28T12:29:00.234Z,28.09
2022-08-28T12:32:12.828Z,28.40
2022-08-28T12:34:42.411Z,28.46
2022-08-28T12:37:51.572Z,28.80
2022-08-28T12:40:19.681Z,28.72
2022-08-28T12:42:54.894Z,28.59
2022-08-28T12:45:45.191Z,28.41
2022-08-28T12:48:26.783Z,28.77
2022-08-28T12:51:03.288Z,28.14
2022-08-28T12:53:44.920Z,28.14
2022-08-28T12:56:14.285Z,28.49
2022-08-28T12:58:42.176Z,28.57
2022-08-28T13:01:32.314Z,29.20
2022-08-28T13:04:03.048Z,28.52
2022-08-28T13:06:35.871Z,28.64
2022-08-28T13:09:06.753Z,28.68
2022-08-28T13:11:40.365Z,28.67
2022-08-28T13:14:08.421Z,28.84
2022-08-28T13:16:45.417Z,29.32
2022-08-28T13:19:26.217Z,29.41
2022-08-28T13:22:01.955Z,29.42
2022-08-28T13:24:38.744Z,28.95
2022-08-28T13:27:14.281Z,28.95
2022-08-28T13:29:55.645Z,29.05
2022-08-28T13:32:27.629Z,29.04
2022-08-28T13:35:27.853Z,29.13
2022-08-28T13:37:57.355Z,29.09
2022-08-28T13:40:56.198Z,29.26
2022-08-28T13:43:16.362Z,29.47
2022-08-28T13:45:46.000Z,29.90
2022-08-28T13:48:14.321Z,30.27
2022-08-28T13:50:44.841Z,29.71
2022-08-28T13:53:18.305Z,29.72
2022-08-28T13:55:45.554Z,29.75
2022-08-28T13:58:13.791Z,29.91
2022-08-28T14:00:44.166Z,29.86
2022-08-28T14:03:29.347Z,30.00
2022-08-28T14:05:56.116Z,30.59
2022-08-28T14:08:22.665Z,30.00
2022-08-28T14:10:49.229Z,30.46
2022-08-28T14:13:15.936Z,30.81
2022-08-28T14:15:43.781Z,30.79
2022-08-28T14:18:10.293Z,30.45
2022-08-28T14:20:38.121Z,29.82
2022-08-28T14:23:04.694Z,30.13
2022-08-28T14:25:33.749Z,30.74
2022-08-28T14:28:02.591Z,30.49
2022-08-28T14:30:29.705Z,30.75
2022-08-28T14:32:56.157Z,30.60
2022-08-28T14:35:22.582Z,30.94
2022-08-28T14:37:49.054Z,31.04
2022-08-28T14:40:16.177Z,31.13
2022-08-28T14:42:42.673Z,30.61
2022-08-28T14:45:09.595Z,30.83
2022-08-28T14:47:36.665Z,30.88
2022-08-28T14:50:03.403Z,30.64
2022-08-28T14:52:29.900Z,30.68
2022-08-28T14:54:56.296Z,30.33
2022-08-28T15:01:21.315Z,30.32
2022-08-28T15:07:00.539Z,30.21
2022-08-28T15:09:28.162Z,30.48
2022-08-28T15:11:54.786Z,30.16
2022-08-28T15:14:21.255Z,30.72
2022-08-28T15:16:48.419Z,30.85
2022-08-28T15:19:17.770Z,30.30
2022-08-28T15:21:48.191Z,30.97
2022-08-28T15:24:15.993Z,30.71
2022-08-28T15:26:43.202Z,30.79
2022-08-28T15:29:11.823Z,30.38
2022-08-28T15:31:42.412Z,30.54
2022-08-28T15:34:13.758Z,29.79
2022-08-28T15:36:41.569Z,30.30
2022-08-28T15:39:28.127Z,31.02
2022-08-28T15:41:55.374Z,30.72
2022-08-28T15:44:22.388Z,30.78
2022-08-28T15:46:55.527Z,30.16
2022-08-28T15:49:23.874Z,30.51
2022-08-28T15:51:50.891Z,30.55
2022-08-28T15:54:17.659Z,31.32
2022-08-28T15:56:44.139Z,31.13
2022-08-28T15:59:17.651Z,31.36
2022-08-28T16:01:45.259Z,31.17
2022-08-28T16:04:12.315Z,31.03
2022-08-28T16:06:39.108Z,30.42
2022-08-28T16:09:06.977Z,30.74
2022-08-28T16:11:33.977Z,30.68
2022-08-28T16:14:05.366Z,30.36
2022-08-28T16:16:32.616Z,30.11
2022-08-28T16:18:59.315Z,30.26
2022-08-28T16:21:26.875Z,30.14
2022-08-28T16:23:55.265Z,29.54
2022-08-28T16:26:25.582Z,30.38
2022-08-28T16:28:52.292Z,29.55
2022-08-28T16:31:19.839Z,29.06
2022-08-28T16:33:48.325Z,29.37
2022-08-28T16:36:16.120Z,29.31
2022-08-28T16:38:46.116Z,28.60
2022-08-28T16:41:19.336Z,28.69
2022-08-28T16:43:47.032Z,29.08
2022-08-28T16:46:17.238Z,27.69
2022-08-28T16:48:44.598Z,27.94
2022-08-28T16:51:12.096Z,27.72
2022-08-28T16:53:40.622Z,28.17
2022-08-28T16:56:09.032Z,28.23
2022-08-28T16:58:37.776Z,28.16
2022-08-28T17:01:05.705Z,28.36
2022-08-28T17:03:34.525Z,27.57
2022-08-28T17:06:08.038Z,28.31
2022-08-28T17:08:34.435Z,27.53
2022-08-28T17:14:39.208Z,28.18
2022-08-28T17:17:05.888Z,28.17
2022-08-28T17:19:32.625Z,27.70
2022-08-28T17:22:17.770Z,27.77
2022-08-28T17:24:46.996Z,27.61
2022-08-28T17:27:16.709Z,27.90
2022-08-28T17:29:49.202Z,26.89
2022-08-28T17:32:15.943Z,27.46
2022-08-28T17:34:42.451Z,27.02
2022-08-28T17:37:11.281Z,27.22
2022-08-28T17:39:37.874Z,27.24
2022-08-28T17:42:04.437Z,27.27
2022-08-28T17:44:31.114Z,26.73
2022-08-28T17:46:57.711Z,26.67
2022-08-28T17:49:24.299Z,26.49
2022-08-28T17:51:51.200Z,26.94
2022-08-28T17:54:21.466Z,26.28
2022-08-28T17:56:48.513Z,27.11
2022-08-28T17:59:15.667Z,27.21
2022-08-28T18:01:43.281Z,27.31
2022-08-28T18:04:10.862Z,27.12
2022-08-28T18:06:37.797Z,27.37
2022-08-28T18:09:05.733Z,26.82
2022-08-28T18:11:32.344Z,26.71
2022-08-28T18:13:59.832Z,26.87
2022-08-28T18:16:31.225Z,26.88
2022-08-28T18:19:02.195Z,26.22
2022-08-28T18:21:29.325Z,26.93
2022-08-28T18:23:56.309Z,26.35
2022-08-28T18:26:25.914Z,26.77
2022-08-28T18:28:52.701Z,26.07
2022-08-28T18:31:19.412Z,26.25
2022-08-28T18:33:46.588Z,25.65
2022-08-28T18:36:14.926Z,26.65
2022-08-28T18:38:42.712Z,25.92
2022-08-28T18:41:10.198Z,26.01
2022-08-28T18:43:37.627Z,25.63
2022-08-28T18:46:06.960Z,25.63
2022-08-28T18:48:33.468Z,25.50
2022-08-28T18:51:00.185Z,25.49
2022-08-28T18:53:31.036Z,26.11
2022-08-28T18:56:00.297Z,25.80
2022-08-28T18:58:29.487Z,25.45
2022-08-28T19:00:56.748Z,25.54
2022-08-28T19:03:23.274Z,25.21
2022-08-28T19:05:53.408Z,25.99
2022-08-28T19:08:20.006Z,25.08
2022-08-28T19:10:46.613Z,24.58
2022-08-28T19:13:13.257Z,24.89
2022-08-28T19:15:39.975Z,25.49
2022-08-28T19:18:07.035Z,24.94
2022-08-28T19:20:36.865Z,24.63
2022-08-28T19:23:03.515Z,25.53
2022-08-28T19:25:30.707Z,25.62
2022-08-28T19:27:59.442Z,25.69
2022-08-28T19:30:27.901Z,25.14
2022-08-28T19:32:54.865Z,25.53
2022-08-28T19:35:24.318Z,25.08
2022-08-28T19:37:52.469Z,25.29
2022-08-28T19:40:20.554Z,24.31
2022-08-28T19:42:49.243Z,24.78
2022-08-28T19:45:16.018Z,24.11
2022-08-28T19:47:42.637Z,24.60
2022-08-28T19:50:12.006Z,24.59
2022-08-28T19:52:39.146Z,25.03
2022-08-28T19:55:06.841Z,24.81
2022-08-28T19:57:35.379Z,25.28
2022-08-28T20:00:04.342Z,24.17
2022-08-28T20:02:30.992Z,25.28
2022-08-28T20:04:57.493Z,25.03
2022-08-28T20:07:24.959Z,24.67
2022-08-28T20:09:52.127Z,24.89
2022-08-28T20:12:18.588Z,24.88
2022-08-28T20:14:45.594Z,24.68
2022-08-28T20:17:12.198Z,24.61
2022-08-28T20:19:39.040Z,24.42
2022-08-28T20:22:05.511Z,23.99
2022-08-28T20:24:32.161Z,24.61
2022-08-28T20:26:58.694Z,24.77
2022-08-28T20:29:25.207Z,24.58
2022-08-28T20:31:52.793Z,24.02
2022-08-28T20:34:20.208Z,24.69
2022-08-28T20:36:47.624Z,24.48
2022-08-28T20:39:14.818Z,24.61
2022-08-28T20:41:42.511Z,24.41
2022-08-28T20:44:12.646Z,24.27
2022-08-28T20:46:41.980Z,23.81
2022-08-28T20:49:10.839Z,24.51
2022-08-28T20:51:52.715Z,24.46
2022-08-28T20:54:41.597Z,24.54
2022-08-28T20:57:10.652Z,24.35
2022-08-28T20:59:40.507Z,24.33
2022-08-28T21:02:10.295Z,24.24
2022-08-28T21:04:39.090Z,23.86
2022-08-28T21:07:06.932Z,24.03
2022-08-28T21:09:52.675Z,24.07
2022-08-28T21:12:20.160Z,23.84
2022-08-28T21:14:51.384Z,23.70
2022-08-28T21:17:28.675Z,23.88
2022-08-28T21:19:55.647Z,23.67
2022-08-28T21:22:22.392Z,23.86
2022-08-28T21:24:48.917Z,23.88
2022-08-28T21:27:15.405Z,24.18
2022-08-28T21:29:45.041Z,23.78
2022-08-28T21:32:11.684Z,23.54
2022-08-28T21:34:38.180Z,24.10
2022-08-28T21:37:04.780Z,24.08
2022-08-28T21:39:31.306Z,24.08
2022-08-28T21:41:57.919Z,24.19
2022-08-28T21:44:24.949Z,23.29
2022-08-28T21:46:51.369Z,24.05
2022-08-28T21:49:17.834Z,24.12
2022-08-28T21:51:44.281Z,23.66
2022-08-28T21:54:10.846Z,23.05
2022-08-28T21:56:37.287Z,23.76
2022-08-28T21:59:03.896Z,23.01
2022-08-28T22:01:30.451Z,23.69
2022-08-28T22:03:57.099Z,23.69
2022-08-28T22:06:24.793Z,23.36
2022-08-28T22:08:52.328Z,23.80
2022-08-28T22:11:23.425Z,23.57
2022-08-28T22:13:55.505Z,23.25
2022-08-28T22:16:22.813Z,23.56
2022-08-28T22:18:49.271Z,22.87
2022-08-28T22:21:45.118Z,23.58
2022-08-28T22:24:13.220Z,23.44
2022-08-28T22:26:40.599Z,23.50
2022-08-28T22:29:07.895Z,23.05
2022-08-28T22:31:35.345Z,23.09
2022-08-28T22:34:06.036Z,23.23
2022-08-28T22:36:33.050Z,23.12
2022-08-28T22:38:59.604Z,23.26
2022-08-28T22:41:26.289Z,23.15
2022-08-28T22:43:53.450Z,22.84
2022-08-28T22:46:20.665Z,23.11
2022-08-28T22:48:47.499Z,22.80
2022-08-28T22:51:18.234Z,22.87
2022-08-28T22:53:45.156Z,22.07
2022-08-28T22:56:12.226Z,22.67
2022-08-28T22:58:39.648Z,22.69
2022-08-28T23:01:09.968Z,22.40
2022-08-28T23:03:37.441Z,22.00
2022-08-28T23:06:04.565Z,22.58
2022-08-28T23:08:34.061Z,22.64
2022-08-28T23:11:00.963Z,22.62
2022-08-28T23:13:28.080Z,22.87
2022-08-28T23:15:54.644Z,21.91
2022-08-28T23:18:21.260Z,22.63
2022-08-28T23:20:50.711Z,22.52
2022-08-28T23:23:19.086Z,21.91
2022-08-28T23:25:45.930Z,21.83
2022-08-28T23:28:12.823Z,22.06
2022-08-28T23:30:41.240Z,22.26
2022-08-28T23:33:19.737Z,21.63
2022-08-28T23:35:50.192Z,21.64
2022-08-28T23:38:16.980Z,21.42
2022-08-28T23:40:44.513Z,22.32
2022-08-28T23:43:11.679Z,22.33
2022-08-28T23:45:42.068Z,22.27
2022-08-28T23:48:09.124Z,21.89
2022-08-28T23:50:35.972Z,22.19
2022-08-28T23:53:03.767Z,22.10
2022-08-28T23:55:30.989Z,21.53
2022-08-28T23:58:00.036Z,22.03
